Accueil
METAR-TAF:

METAR-TAF

Aéroports :

Sion, Suisse

Aéroport de Sion

latitude: 46-13N, longitude: 007-20E, altitude: 482 m

Observation

Le bulletin a été fait il y a 38 minutes, à 15:50 UTC
Vent 13 kt de ouest
Température 3°C
Humidité 56%
Pression 1005 hPa
Visibilité 10 km ou plus
Quelques nuages à une hauteur de 7000 ft
Nuages fragmentés à une hauteur de 15000 ft

METAR: LSGS 221550Z 26013KT 9999 FEW070 BKN150 03/M05 Q1005

Heure: 17:28 (16:28 UTC)

Prévision

Le bulletin a été fait il y a 2 heures et 3 minutes, à 14:25 UTC
Prévision valable du 22 à 15 UTC au 22 à 24 UTC
Vent 5 kt de ouest
Visibilité 10 km ou plus
Quelques nuages à une hauteur de 7000 ft
Nuages épars à une hauteur de 15000 ft

TAF: LSGS 221425Z 2215/2224 26005KT 9999 FEW070 SCT150

Observations et prévisions météorologiques de plus de 4000 aéroports (messages METAR et TAF).

Les stations disponibles sont représentées par des disques jaunes et rouges sur la carte.

Passer la souris dessus pour voir le nom de la station.

Cliquer dessus pour voir les observations et prévisions météorologiques.

Pour changer de carte: cliquez sur les boutons verts avec une croix noire pour zoomer, sur le bouton vert avec un tiret pour effectuer un zoom arrière, ou sur les flèches vertes pour les cartes adjacentes.


METAR-TAF: